Cornland, Illinois
Current Conditions -  °F | °C
As of 5:52 PM on Thursday 18 Dec 2014 (Local Time) from KSPI Reporting Station
Overcast Overcast  
Wind Chill: 25°   Ceiling: 1300
Heat Index: 30°   Visibility: 10mi
Dew Point: 24°   Wind: 5mph
Humidity: 79%   Direction: 360°N
Pressure: 30.27"   Gusts: NA
Location:  39.94°N, 89.4°W
Report Text: KSPI 182352Z 36004KT 10SM OVC013 M01/M04 A3027 RMK AO2 SLP258 T10111044 10000 21017 51009
Loading
Personal Weather Stations






























Interactive Weather Map New forecast layout! Learn more

10-Day Weather Forecast

Advertisements
Track Severe Weather on mobile